sensor_id;sensor_type;location;lat;lon;timestamp;temperature;humidity
2873;DHT22;1444;49.166;7.312;2023-04-15T00:01:46;4.50;96.40
2873;DHT22;1444;49.166;7.312;2023-04-15T00:04:13;4.50;96.30
2873;DHT22;1444;49.166;7.312;2023-04-15T00:09:07;4.80;95.70
2873;DHT22;1444;49.166;7.312;2023-04-15T00:11:33;4.90;95.50
2873;DHT22;1444;49.166;7.312;2023-04-15T00:14:00;4.90;95.50
2873;DHT22;1444;49.166;7.312;2023-04-15T00:16:27;4.90;96.10
2873;DHT22;1444;49.166;7.312;2023-04-15T00:18:55;5.00;95.70
2873;DHT22;1444;49.166;7.312;2023-04-15T00:21:21;5.10;95.10
2873;DHT22;1444;49.166;7.312;2023-04-15T00:23:48;5.10;94.80
2873;DHT22;1444;49.166;7.312;2023-04-15T00:26:18;5.10;94.80
2873;DHT22;1444;49.166;7.312;2023-04-15T00:28:45;5.20;94.40
2873;DHT22;1444;49.166;7.312;2023-04-15T00:31:12;5.40;94.40
2873;DHT22;1444;49.166;7.312;2023-04-15T00:33:38;5.20;94.20
2873;DHT22;1444;49.166;7.312;2023-04-15T00:36:07;5.10;94.30
2873;DHT22;1444;49.166;7.312;2023-04-15T00:38:36;5.00;94.40
2873;DHT22;1444;49.166;7.312;2023-04-15T00:41:03;5.00;94.30
2873;DHT22;1444;49.166;7.312;2023-04-15T00:43:30;5.00;94.20
2873;DHT22;1444;49.166;7.312;2023-04-15T00:45:58;4.90;94.00
2873;DHT22;1444;49.166;7.312;2023-04-15T00:48:25;4.90;94.20
2873;DHT22;1444;49.166;7.312;2023-04-15T00:50:52;4.90;94.40
2873;DHT22;1444;49.166;7.312;2023-04-15T00:53:20;4.90;94.20
2873;DHT22;1444;49.166;7.312;2023-04-15T00:55:47;5.00;94.10
2873;DHT22;1444;49.166;7.312;2023-04-15T00:58:14;5.00;93.80
2873;DHT22;1444;49.166;7.312;2023-04-15T01:00:42;5.00;93.90
2873;DHT22;1444;49.166;7.312;2023-04-15T01:03:08;4.90;94.00
2873;DHT22;1444;49.166;7.312;2023-04-15T01:05:36;4.90;94.00
2873;DHT22;1444;49.166;7.312;2023-04-15T01:08:04;4.90;93.90
2873;DHT22;1444;49.166;7.312;2023-04-15T01:10:32;4.90;93.80
2873;DHT22;1444;49.166;7.312;2023-04-15T01:12:59;6.40;94.70
2873;DHT22;1444;49.166;7.312;2023-04-15T01:15:26;4.80;94.20
2873;DHT22;1444;49.166;7.312;2023-04-15T01:17:53;4.80;94.30
2873;DHT22;1444;49.166;7.312;2023-04-15T01:20:20;4.80;93.90
2873;DHT22;1444;49.166;7.312;2023-04-15T01:22:48;4.70;93.80
2873;DHT22;1444;49.166;7.312;2023-04-15T01:25:17;4.70;93.70
2873;DHT22;1444;49.166;7.312;2023-04-15T01:27:46;4.70;93.40
2873;DHT22;1444;49.166;7.312;2023-04-15T01:30:12;4.60;93.30
2873;DHT22;1444;49.166;7.312;2023-04-15T01:32:40;4.60;93.40
2873;DHT22;1444;49.166;7.312;2023-04-15T01:35:07;4.60;93.50
2873;DHT22;1444;49.166;7.312;2023-04-15T01:37:34;4.50;93.50
2873;DHT22;1444;49.166;7.312;2023-04-15T01:40:02;4.50;93.50
2873;DHT22;1444;49.166;7.312;2023-04-15T01:42:28;4.50;93.50
2873;DHT22;1444;49.166;7.312;2023-04-15T01:44:57;4.30;93.60
2873;DHT22;1444;49.166;7.312;2023-04-15T01:47:23;4.20;94.30
2873;DHT22;1444;49.166;7.312;2023-04-15T01:49:50;4.00;95.00
2873;DHT22;1444;49.166;7.312;2023-04-15T01:52:17;4.00;95.40
2873;DHT22;1444;49.166;7.312;2023-04-15T01:54:43;3.90;95.60
2873;DHT22;1444;49.166;7.312;2023-04-15T01:57:11;4.00;95.70
2873;DHT22;1444;49.166;7.312;2023-04-15T01:59:37;4.00;95.20
2873;DHT22;1444;49.166;7.312;2023-04-15T02:02:05;4.10;94.90
2873;DHT22;1444;49.166;7.312;2023-04-15T02:04:32;4.10;94.50
2873;DHT22;1444;49.166;7.312;2023-04-15T02:06:59;4.10;94.20
2873;DHT22;1444;49.166;7.312;2023-04-15T02:09:26;4.10;94.20
2873;DHT22;1444;49.166;7.312;2023-04-15T02:11:52;1.90;93.20
2873;DHT22;1444;49.166;7.312;2023-04-15T02:14:19;4.20;94.00
2873;DHT22;1444;49.166;7.312;2023-04-15T02:16:46;4.20;93.90
2873;DHT22;1444;49.166;7.312;2023-04-15T02:19:14;4.20;93.80
2873;DHT22;1444;49.166;7.312;2023-04-15T02:21:41;4.20;94.10
2873;DHT22;1444;49.166;7.312;2023-04-15T02:24:08;4.20;94.20
2873;DHT22;1444;49.166;7.312;2023-04-15T02:26:36;4.20;93.90
2873;DHT22;1444;49.166;7.312;2023-04-15T02:29:03;4.20;93.80
2873;DHT22;1444;49.166;7.312;2023-04-15T02:31:30;4.10;93.60
2873;DHT22;1444;49.166;7.312;2023-04-15T02:34:01;4.10;93.60
2873;DHT22;1444;49.166;7.312;2023-04-15T02:36:30;4.00;93.50
2873;DHT22;1444;49.166;7.312;2023-04-15T02:38:57;3.80;93.50
2873;DHT22;1444;49.166;7.312;2023-04-15T02:41:24;3.50;94.00
2873;DHT22;1444;49.166;7.312;2023-04-15T02:43:55;3.40;94.60
2873;DHT22;1444;49.166;7.312;2023-04-15T02:46:22;3.40;95.10
2873;DHT22;1444;49.166;7.312;2023-04-15T02:48:49;3.50;94.90
2873;DHT22;1444;49.166;7.312;2023-04-15T02:51:19;3.50;94.70
2873;DHT22;1444;49.166;7.312;2023-04-15T02:53:47;3.60;94.30
2873;DHT22;1444;49.166;7.312;2023-04-15T02:56:15;3.70;94.30
2873;DHT22;1444;49.166;7.312;2023-04-15T02:58:43;3.70;94.10
2873;DHT22;1444;49.166;7.312;2023-04-15T03:01:10;3.80;94.00
2873;DHT22;1444;49.166;7.312;2023-04-15T03:03:36;3.80;93.80
2873;DHT22;1444;49.166;7.312;2023-04-15T03:06:03;3.80;93.80
2873;DHT22;1444;49.166;7.312;2023-04-15T03:08:30;3.80;93.90
2873;DHT22;1444;49.166;7.312;2023-04-15T03:10:58;3.70;94.50
2873;DHT22;1444;49.166;7.312;2023-04-15T03:13:27;3.60;95.10
2873;DHT22;1444;49.166;7.312;2023-04-15T03:15:53;3.60;94.90
2873;DHT22;1444;49.166;7.312;2023-04-15T03:18:20;3.70;94.60
2873;DHT22;1444;49.166;7.312;2023-04-15T03:20:47;3.70;94.20
2873;DHT22;1444;49.166;7.312;2023-04-15T03:23:14;3.70;93.90
2873;DHT22;1444;49.166;7.312;2023-04-15T03:25:41;3.80;93.90
2873;DHT22;1444;49.166;7.312;2023-04-15T03:28:09;4.30;94.00
2873;DHT22;1444;49.166;7.312;2023-04-15T03:30:35;3.60;93.80
2873;DHT22;1444;49.166;7.312;2023-04-15T03:33:02;3.60;93.90
2873;DHT22;1444;49.166;7.312;2023-04-15T03:35:29;3.60;93.90
2873;DHT22;1444;49.166;7.312;2023-04-15T03:37:56;3.60;93.80
2873;DHT22;1444;49.166;7.312;2023-04-15T03:40:22;3.60;93.80
2873;DHT22;1444;49.166;7.312;2023-04-15T03:42:49;3.60;93.90
2873;DHT22;1444;49.166;7.312;2023-04-15T03:45:17;3.70;93.90
2873;DHT22;1444;49.166;7.312;2023-04-15T03:47:44;3.70;94.00
2873;DHT22;1444;49.166;7.312;2023-04-15T03:50:10;3.70;94.00
2873;DHT22;1444;49.166;7.312;2023-04-15T03:52:37;3.70;94.10
2873;DHT22;1444;49.166;7.312;2023-04-15T03:55:04;3.70;94.20
2873;DHT22;1444;49.166;7.312;2023-04-15T03:57:31;3.70;94.10
2873;DHT22;1444;49.166;7.312;2023-04-15T04:00:02;3.70;94.00
2873;DHT22;1444;49.166;7.312;2023-04-15T04:02:30;3.70;94.10
2873;DHT22;1444;49.166;7.312;2023-04-15T04:04:57;3.80;94.10
2873;DHT22;1444;49.166;7.312;2023-04-15T04:07:24;3.80;94.00
2873;DHT22;1444;49.166;7.312;2023-04-15T04:09:50;3.90;94.10
2873;DHT22;1444;49.166;7.312;2023-04-15T04:12:17;3.90;94.30
2873;DHT22;1444;49.166;7.312;2023-04-15T04:14:44;3.90;94.30
2873;DHT22;1444;49.166;7.312;2023-04-15T04:17:11;3.70;94.40
2873;DHT22;1444;49.166;7.312;2023-04-15T04:19:39;3.60;95.10
2873;DHT22;1444;49.166;7.312;2023-04-15T04:22:06;3.50;95.20
2873;DHT22;1444;49.166;7.312;2023-04-15T04:24:32;3.30;95.80
2873;DHT22;1444;49.166;7.312;2023-04-15T04:26:59;3.10;95.90
2873;DHT22;1444;49.166;7.312;2023-04-15T04:29:26;3.00;96.10
2873;DHT22;1444;49.166;7.312;2023-04-15T04:31:53;3.00;96.30
2873;DHT22;1444;49.166;7.312;2023-04-15T04:34:19;3.00;96.40
2873;DHT22;1444;49.166;7.312;2023-04-15T04:36:47;2.90;97.10
2873;DHT22;1444;49.166;7.312;2023-04-15T04:39:14;3.00;97.40
2873;DHT22;1444;49.166;7.312;2023-04-15T04:41:41;3.10;97.00
2873;DHT22;1444;49.166;7.312;2023-04-15T04:44:07;3.30;96.70
2873;DHT22;1444;49.166;7.312;2023-04-15T04:46:34;3.40;96.70
2873;DHT22;1444;49.166;7.312;2023-04-15T04:49:01;3.50;96.80
2873;DHT22;1444;49.166;7.312;2023-04-15T04:51:27;3.70;96.40
2873;DHT22;1444;49.166;7.312;2023-04-15T04:53:55;3.80;96.20
2873;DHT22;1444;49.166;7.312;2023-04-15T04:56:22;3.90;96.10
2873;DHT22;1444;49.166;7.312;2023-04-15T04:58:49;4.00;95.80
2873;DHT22;1444;49.166;7.312;2023-04-15T05:01:16;4.10;95.80
2873;DHT22;1444;49.166;7.312;2023-04-15T05:03:42;4.10;95.80
2873;DHT22;1444;49.166;7.312;2023-04-15T05:06:09;4.20;95.80
2873;DHT22;1444;49.166;7.312;2023-04-15T05:08:36;4.30;95.80
2873;DHT22;1444;49.166;7.312;2023-04-15T05:11:04;4.20;95.70
2873;DHT22;1444;49.166;7.312;2023-04-15T05:13:31;4.10;96.10
2873;DHT22;1444;49.166;7.312;2023-04-15T05:15:58;4.00;96.20
2873;DHT22;1444;49.166;7.312;2023-04-15T05:18:25;4.00;96.70
2873;DHT22;1444;49.166;7.312;2023-04-15T05:20:51;4.00;96.70
2873;DHT22;1444;49.166;7.312;2023-04-15T05:23:18;3.90;97.00
2873;DHT22;1444;49.166;7.312;2023-04-15T05:25:45;3.90;97.20
2873;DHT22;1444;49.166;7.312;2023-04-15T05:28:13;4.10;97.30
2873;DHT22;1444;49.166;7.312;2023-04-15T05:30:40;4.30;97.10
2873;DHT22;1444;49.166;7.312;2023-04-15T05:33:06;4.50;96.90
2873;DHT22;1444;49.166;7.312;2023-04-15T05:35:34;4.60;96.70
2873;DHT22;1444;49.166;7.312;2023-04-15T05:38:00;4.70;96.50
2873;DHT22;1444;49.166;7.312;2023-04-15T05:40:27;4.80;96.30
2873;DHT22;1444;49.166;7.312;2023-04-15T05:42:54;4.90;96.40
2873;DHT22;1444;49.166;7.312;2023-04-15T05:45:22;5.00;96.60
2873;DHT22;1444;49.166;7.312;2023-04-15T05:47:48;5.10;96.80
2873;DHT22;1444;49.166;7.312;2023-04-15T05:50:18;5.30;96.90
2873;DHT22;1444;49.166;7.312;2023-04-15T05:55:12;5.70;97.00
2873;DHT22;1444;49.166;7.312;2023-04-15T05:57:39;5.80;96.50
2873;DHT22;1444;49.166;7.312;2023-04-15T06:00:07;6.10;96.50
2873;DHT22;1444;49.166;7.312;2023-04-15T06:02:35;6.10;96.40
2873;DHT22;1444;49.166;7.312;2023-04-15T06:05:02;6.20;96.30
2873;DHT22;1444;49.166;7.312;2023-04-15T06:07:34;6.30;96.30
2873;DHT22;1444;49.166;7.312;2023-04-15T06:10:01;6.70;97.00
2873;DHT22;1444;49.166;7.312;2023-04-15T06:12:27;7.00;97.30
2873;DHT22;1444;49.166;7.312;2023-04-15T06:14:54;7.30;97.20
2873;DHT22;1444;49.166;7.312;2023-04-15T06:17:21;7.70;97.10
2873;DHT22;1444;49.166;7.312;2023-04-15T06:19:50;8.10;97.10
2873;DHT22;1444;49.166;7.312;2023-04-15T06:22:20;8.30;96.60
2873;DHT22;1444;49.166;7.312;2023-04-15T06:24:47;8.80;96.50
2873;DHT22;1444;49.166;7.312;2023-04-15T06:27:13;9.20;96.60
2873;DHT22;1444;49.166;7.312;2023-04-15T06:29:40;9.50;96.40
2873;DHT22;1444;49.166;7.312;2023-04-15T06:32:07;10.00;95.10
2873;DHT22;1444;49.166;7.312;2023-04-15T06:34:33;10.30;94.70
2873;DHT22;1444;49.166;7.312;2023-04-15T06:37:01;10.70;94.60
2873;DHT22;1444;49.166;7.312;2023-04-15T06:39:28;11.20;94.20
2873;DHT22;1444;49.166;7.312;2023-04-15T06:41:55;11.60;94.10
2873;DHT22;1444;49.166;7.312;2023-04-15T06:44:21;12.10;93.60
2873;DHT22;1444;49.166;7.312;2023-04-15T06:46:48;12.60;92.50
2873;DHT22;1444;49.166;7.312;2023-04-15T06:49:15;12.80;92.30
2873;DHT22;1444;49.166;7.312;2023-04-15T06:51:42;12.90;92.00
2873;DHT22;1444;49.166;7.312;2023-04-15T06:54:10;13.20;91.80
2873;DHT22;1444;49.166;7.312;2023-04-15T06:56:37;13.30;91.50
2873;DHT22;1444;49.166;7.312;2023-04-15T06:59:03;13.40;91.60
2873;DHT22;1444;49.166;7.312;2023-04-15T07:01:31;13.70;91.50
2873;DHT22;1444;49.166;7.312;2023-04-15T07:03:57;14.10;91.70
2873;DHT22;1444;49.166;7.312;2023-04-15T07:06:24;14.40;91.60
2873;DHT22;1444;49.166;7.312;2023-04-15T07:08:51;15.00;91.20
2873;DHT22;1444;49.166;7.312;2023-04-15T07:11:20;15.40;90.00
2873;DHT22;1444;49.166;7.312;2023-04-15T07:13:47;15.70;90.20
2873;DHT22;1444;49.166;7.312;2023-04-15T07:16:13;16.20;89.00
2873;DHT22;1444;49.166;7.312;2023-04-15T07:18:40;16.50;90.20
2873;DHT22;1444;49.166;7.312;2023-04-15T07:21:07;15.80;89.20
2873;DHT22;1444;49.166;7.312;2023-04-15T07:23:34;16.80;90.10
2873;DHT22;1444;49.166;7.312;2023-04-15T07:26:01;17.00;88.50
2873;DHT22;1444;49.166;7.312;2023-04-15T07:28:30;17.20;88.50
2873;DHT22;1444;49.166;7.312;2023-04-15T07:30:57;17.40;86.60
2873;DHT22;1444;49.166;7.312;2023-04-15T07:33:23;17.60;86.30
2873;DHT22;1444;49.166;7.312;2023-04-15T07:35:50;17.50;87.50
2873;DHT22;1444;49.166;7.312;2023-04-15T07:38:17;17.60;86.00
2873;DHT22;1444;49.166;7.312;2023-04-15T07:40:45;17.60;85.00
2873;DHT22;1444;49.166;7.312;2023-04-15T07:43:12;17.70;86.30
2873;DHT22;1444;49.166;7.312;2023-04-15T07:45:40;17.30;83.60
2873;DHT22;1444;49.166;7.312;2023-04-15T07:48:07;17.30;87.00
2873;DHT22;1444;49.166;7.312;2023-04-15T07:50:34;17.40;86.50
2873;DHT22;1444;49.166;7.312;2023-04-15T07:53:00;17.60;88.60
2873;DHT22;1444;49.166;7.312;2023-04-15T07:55:27;17.70;85.80
2873;DHT22;1444;49.166;7.312;2023-04-15T07:57:55;17.90;84.90
2873;DHT22;1444;49.166;7.312;2023-04-15T08:00:22;18.10;85.10
2873;DHT22;1444;49.166;7.312;2023-04-15T08:02:50;18.20;84.00
2873;DHT22;1444;49.166;7.312;2023-04-15T08:05:18;18.30;84.60
2873;DHT22;1444;49.166;7.312;2023-04-15T08:07:45;18.40;83.60
2873;DHT22;1444;49.166;7.312;2023-04-15T08:10:11;18.50;80.40
2873;DHT22;1444;49.166;7.312;2023-04-15T08:12:38;18.50;78.70
2873;DHT22;1444;49.166;7.312;2023-04-15T08:15:06;18.00;82.10
2873;DHT22;1444;49.166;7.312;2023-04-15T08:17:33;18.00;82.80
2873;DHT22;1444;49.166;7.312;2023-04-15T08:20:02;18.10;83.90
2873;DHT22;1444;49.166;7.312;2023-04-15T08:22:30;18.30;82.30
2873;DHT22;1444;49.166;7.312;2023-04-15T08:24:57;18.30;79.70
2873;DHT22;1444;49.166;7.312;2023-04-15T08:27:23;18.50;79.60
2873;DHT22;1444;49.166;7.312;2023-04-15T08:29:50;18.70;79.40
2873;DHT22;1444;49.166;7.312;2023-04-15T08:32:17;18.90;79.20
2873;DHT22;1444;49.166;7.312;2023-04-15T08:34:44;18.90;80.10
2873;DHT22;1444;49.166;7.312;2023-04-15T08:37:12;19.10;77.90
2873;DHT22;1444;49.166;7.312;2023-04-15T08:39:39;19.10;79.50
2873;DHT22;1444;49.166;7.312;2023-04-15T08:42:10;19.30;79.60
2873;DHT22;1444;49.166;7.312;2023-04-15T08:44:38;19.40;75.30
2873;DHT22;1444;49.166;7.312;2023-04-15T08:47:07;19.50;75.10
2873;DHT22;1444;49.166;7.312;2023-04-15T08:49:38;19.30;73.20
2873;DHT22;1444;49.166;7.312;2023-04-15T08:52:05;19.30;76.00
2873;DHT22;1444;49.166;7.312;2023-04-15T08:54:34;19.20;75.80
2873;DHT22;1444;49.166;7.312;2023-04-15T08:57:00;19.30;76.40
2873;DHT22;1444;49.166;7.312;2023-04-15T08:59:29;19.30;74.30
2873;DHT22;1444;49.166;7.312;2023-04-15T09:01:56;19.20;73.40
2873;DHT22;1444;49.166;7.312;2023-04-15T09:04:23;19.30;74.90
2873;DHT22;1444;49.166;7.312;2023-04-15T09:06:50;19.40;75.30
2873;DHT22;1444;49.166;7.312;2023-04-15T09:09:17;19.40;73.90
2873;DHT22;1444;49.166;7.312;2023-04-15T09:11:45;19.60;74.20
2873;DHT22;1444;49.166;7.312;2023-04-15T09:14:11;19.60;72.30
2873;DHT22;1444;49.166;7.312;2023-04-15T09:16:58;19.60;72.40
2873;DHT22;1444;49.166;7.312;2023-04-15T09:19:25;19.50;71.30
2873;DHT22;1444;49.166;7.312;2023-04-15T09:21:53;19.50;71.20
2873;DHT22;1444;49.166;7.312;2023-04-15T09:24:21;19.50;72.70
2873;DHT22;1444;49.166;7.312;2023-04-15T09:26:51;19.40;70.30
2873;DHT22;1444;49.166;7.312;2023-04-15T09:29:19;19.20;70.10
2873;DHT22;1444;49.166;7.312;2023-04-15T09:31:45;19.20;71.20
2873;DHT22;1444;49.166;7.312;2023-04-15T09:34:12;19.30;72.90
2873;DHT22;1444;49.166;7.312;2023-04-15T09:36:52;19.40;72.80
2873;DHT22;1444;49.166;7.312;2023-04-15T09:39:19;19.50;73.10
2873;DHT22;1444;49.166;7.312;2023-04-15T09:41:46;19.60;72.60
2873;DHT22;1444;49.166;7.312;2023-04-15T09:44:23;19.50;72.20
2873;DHT22;1444;49.166;7.312;2023-04-15T09:46:50;19.60;70.90
2873;DHT22;1444;49.166;7.312;2023-04-15T09:49:16;19.80;70.20
2873;DHT22;1444;49.166;7.312;2023-04-15T09:51:43;19.80;66.80
2873;DHT22;1444;49.166;7.312;2023-04-15T09:54:11;20.00;69.80
2873;DHT22;1444;49.166;7.312;2023-04-15T09:56:38;20.00;63.70
2873;DHT22;1444;49.166;7.312;2023-04-15T09:59:07;19.90;64.00
2873;DHT22;1444;49.166;7.312;2023-04-15T10:01:35;20.10;63.60
2873;DHT22;1444;49.166;7.312;2023-04-15T10:04:03;20.20;65.80
2873;DHT22;1444;49.166;7.312;2023-04-15T10:06:30;20.40;66.80
2873;DHT22;1444;49.166;7.312;2023-04-15T10:08:57;20.40;64.10
2873;DHT22;1444;49.166;7.312;2023-04-15T10:11:27;20.70;68.40
2873;DHT22;1444;49.166;7.312;2023-04-15T10:13:55;20.90;65.70
2873;DHT22;1444;49.166;7.312;2023-04-15T10:16:25;20.90;66.70
2873;DHT22;1444;49.166;7.312;2023-04-15T10:18:55;20.90;66.10
2873;DHT22;1444;49.166;7.312;2023-04-15T10:21:23;20.90;63.60
2873;DHT22;1444;49.166;7.312;2023-04-15T10:23:50;20.50;58.70
2873;DHT22;1444;49.166;7.312;2023-04-15T10:26:17;20.00;59.50
2873;DHT22;1444;49.166;7.312;2023-04-15T10:28:44;19.80;60.70
2873;DHT22;1444;49.166;7.312;2023-04-15T10:31:13;19.70;63.80
2873;DHT22;1444;49.166;7.312;2023-04-15T10:33:41;19.80;63.00
2873;DHT22;1444;49.166;7.312;2023-04-15T10:36:10;19.70;60.90
2873;DHT22;1444;49.166;7.312;2023-04-15T10:38:38;19.70;60.20
2873;DHT22;1444;49.166;7.312;2023-04-15T10:41:14;19.60;59.20
2873;DHT22;1444;49.166;7.312;2023-04-15T10:43:46;19.50;61.00
2873;DHT22;1444;49.166;7.312;2023-04-15T10:46:17;19.60;58.70
2873;DHT22;1444;49.166;7.312;2023-04-15T10:48:51;19.60;60.50
2873;DHT22;1444;49.166;7.312;2023-04-15T10:51:27;19.50;58.00
2873;DHT22;1444;49.166;7.312;2023-04-15T10:53:56;19.50;60.30
2873;DHT22;1444;49.166;7.312;2023-04-15T10:56:24;19.40;58.70
2873;DHT22;1444;49.166;7.312;2023-04-15T10:58:51;19.50;60.70
2873;DHT22;1444;49.166;7.312;2023-04-15T11:01:19;19.50;59.10
2873;DHT22;1444;49.166;7.312;2023-04-15T11:03:47;19.50;59.80
2873;DHT22;1444;49.166;7.312;2023-04-15T11:06:15;19.50;59.20
2873;DHT22;1444;49.166;7.312;2023-04-15T11:08:57;19.50;61.20
2873;DHT22;1444;49.166;7.312;2023-04-15T11:14:39;19.70;59.60
2873;DHT22;1444;49.166;7.312;2023-04-15T11:17:07;19.50;55.80
2873;DHT22;1444;49.166;7.312;2023-04-15T11:19:35;19.70;59.80
2873;DHT22;1444;49.166;7.312;2023-04-15T11:22:06;19.80;59.40
2873;DHT22;1444;49.166;7.312;2023-04-15T11:24:35;19.90;61.60
2873;DHT22;1444;49.166;7.312;2023-04-15T11:27:01;20.00;61.20
2873;DHT22;1444;49.166;7.312;2023-04-15T11:29:30;19.90;64.60
2873;DHT22;1444;49.166;7.312;2023-04-15T11:32:08;19.80;61.60
2873;DHT22;1444;49.166;7.312;2023-04-15T11:34:35;19.80;62.60
2873;DHT22;1444;49.166;7.312;2023-04-15T11:37:03;19.80;64.30
2873;DHT22;1444;49.166;7.312;2023-04-15T11:39:31;19.90;63.90
2873;DHT22;1444;49.166;7.312;2023-04-15T11:41:59;19.90;61.20
2873;DHT22;1444;49.166;7.312;2023-04-15T11:44:25;19.60;62.20
2873;DHT22;1444;49.166;7.312;2023-04-15T11:46:54;19.60;61.10
2873;DHT22;1444;49.166;7.312;2023-04-15T11:49:27;19.50;63.60
2873;DHT22;1444;49.166;7.312;2023-04-15T11:51:54;19.50;60.90
2873;DHT22;1444;49.166;7.312;2023-04-15T11:54:21;19.60;63.60
2873;DHT22;1444;49.166;7.312;2023-04-15T11:56:50;19.80;65.50
2873;DHT22;1444;49.166;7.312;2023-04-15T11:59:18;20.00;61.90
2873;DHT22;1444;49.166;7.312;2023-04-15T12:01:45;20.00;60.20
2873;DHT22;1444;49.166;7.312;2023-04-15T12:04:12;20.10;60.00
2873;DHT22;1444;49.166;7.312;2023-04-15T12:06:39;19.70;60.70
2873;DHT22;1444;49.166;7.312;2023-04-15T12:09:11;19.70;59.60
2873;DHT22;1444;49.166;7.312;2023-04-15T12:11:40;19.80;61.70
2873;DHT22;1444;49.166;7.312;2023-04-15T12:14:23;19.90;60.30
2873;DHT22;1444;49.166;7.312;2023-04-15T12:16:51;20.00;60.60
2873;DHT22;1444;49.166;7.312;2023-04-15T12:19:23;20.20;61.60
2873;DHT22;1444;49.166;7.312;2023-04-15T12:21:51;20.20;60.30
2873;DHT22;1444;49.166;7.312;2023-04-15T12:24:20;20.50;61.20
2873;DHT22;1444;49.166;7.312;2023-04-15T12:26:50;20.60;60.10
2873;DHT22;1444;49.166;7.312;2023-04-15T12:29:18;20.60;60.70
2873;DHT22;1444;49.166;7.312;2023-04-15T12:31:48;20.50;60.10
2873;DHT22;1444;49.166;7.312;2023-04-15T12:36:43;19.90;59.50
2873;DHT22;1444;49.166;7.312;2023-04-15T12:39:10;19.80;61.40
2873;DHT22;1444;49.166;7.312;2023-04-15T12:41:36;19.70;60.90
2873;DHT22;1444;49.166;7.312;2023-04-15T12:44:03;19.40;62.20
2873;DHT22;1444;49.166;7.312;2023-04-15T12:46:30;19.30;61.10
2873;DHT22;1444;49.166;7.312;2023-04-15T12:51:25;18.90;59.70
2873;DHT22;1444;49.166;7.312;2023-04-15T12:53:52;18.80;61.60
2873;DHT22;1444;49.166;7.312;2023-04-15T12:58:46;18.50;63.20
2873;DHT22;1444;49.166;7.312;2023-04-15T13:01:13;18.60;60.30
2873;DHT22;1444;49.166;7.312;2023-04-15T13:06:08;18.40;60.10
2873;DHT22;1444;49.166;7.312;2023-04-15T13:08:39;18.30;60.00
2873;DHT22;1444;49.166;7.312;2023-04-15T13:11:06;18.00;59.80
2873;DHT22;1444;49.166;7.312;2023-04-15T13:13:32;18.00;60.60
2873;DHT22;1444;49.166;7.312;2023-04-15T13:15:59;17.90;60.40
2873;DHT22;1444;49.166;7.312;2023-04-15T13:18:26;17.80;61.10
2873;DHT22;1444;49.166;7.312;2023-04-15T13:20:53;17.80;62.80
2873;DHT22;1444;49.166;7.312;2023-04-15T13:23:21;17.70;62.90
2873;DHT22;1444;49.166;7.312;2023-04-15T13:25:50;17.90;60.90
2873;DHT22;1444;49.166;7.312;2023-04-15T13:28:17;17.90;60.20
2873;DHT22;1444;49.166;7.312;2023-04-15T13:30:44;17.90;62.20
2873;DHT22;1444;49.166;7.312;2023-04-15T13:33:13;18.00;59.70
2873;DHT22;1444;49.166;7.312;2023-04-15T13:35:39;17.90;59.70
2873;DHT22;1444;49.166;7.312;2023-04-15T13:38:06;17.90;58.40
2873;DHT22;1444;49.166;7.312;2023-04-15T13:40:34;17.70;58.70
2873;DHT22;1444;49.166;7.312;2023-04-15T13:43:01;17.70;60.30
2873;DHT22;1444;49.166;7.312;2023-04-15T13:45:28;17.70;59.00
2873;DHT22;1444;49.166;7.312;2023-04-15T13:47:55;17.80;59.20
2873;DHT22;1444;49.166;7.312;2023-04-15T13:50:22;18.00;58.70
2873;DHT22;1444;49.166;7.312;2023-04-15T13:52:49;18.10;59.50
2873;DHT22;1444;49.166;7.312;2023-04-15T13:55:15;18.20;60.30
2873;DHT22;1444;49.166;7.312;2023-04-15T13:57:43;18.20;60.00
2873;DHT22;1444;49.166;7.312;2023-04-15T14:00:11;18.20;58.20
2873;DHT22;1444;49.166;7.312;2023-04-15T14:02:39;18.20;58.50
2873;DHT22;1444;49.166;7.312;2023-04-15T14:05:06;19.50;59.80
2873;DHT22;1444;49.166;7.312;2023-04-15T14:07:33;18.20;61.30
2873;DHT22;1444;49.166;7.312;2023-04-15T14:10:00;18.20;58.40
2873;DHT22;1444;49.166;7.312;2023-04-15T14:12:27;18.20;58.40
2873;DHT22;1444;49.166;7.312;2023-04-15T14:14:55;18.10;58.70
2873;DHT22;1444;49.166;7.312;2023-04-15T14:17:21;18.10;58.80
2873;DHT22;1444;49.166;7.312;2023-04-15T14:19:48;18.10;58.60
2873;DHT22;1444;49.166;7.312;2023-04-15T14:22:15;18.10;58.90
2873;DHT22;1444;49.166;7.312;2023-04-15T14:24:43;18.10;58.80
2873;DHT22;1444;49.166;7.312;2023-04-15T14:27:10;18.30;60.90
2873;DHT22;1444;49.166;7.312;2023-04-15T14:29:37;18.30;60.50
2873;DHT22;1444;49.166;7.312;2023-04-15T14:32:05;18.40;60.10
2873;DHT22;1444;49.166;7.312;2023-04-15T14:34:32;18.30;59.30
2873;DHT22;1444;49.166;7.312;2023-04-15T14:36:59;18.30;58.90
2873;DHT22;1444;49.166;7.312;2023-04-15T14:39:25;18.20;59.20
2873;DHT22;1444;49.166;7.312;2023-04-15T14:41:52;18.20;60.30
2873;DHT22;1444;49.166;7.312;2023-04-15T14:44:20;18.20;60.80
2873;DHT22;1444;49.166;7.312;2023-04-15T14:46:46;18.20;61.40
2873;DHT22;1444;49.166;7.312;2023-04-15T14:49:14;18.10;61.90
2873;DHT22;1444;49.166;7.312;2023-04-15T14:51:41;18.10;60.60
2873;DHT22;1444;49.166;7.312;2023-04-15T14:54:08;18.10;59.00
2873;DHT22;1444;49.166;7.312;2023-04-15T14:56:35;18.00;58.50
2873;DHT22;1444;49.166;7.312;2023-04-15T14:59:01;18.00;59.90
2873;DHT22;1444;49.166;7.312;2023-04-15T15:01:28;17.90;59.50
2873;DHT22;1444;49.166;7.312;2023-04-15T15:03:55;17.90;59.10
2873;DHT22;1444;49.166;7.312;2023-04-15T15:06:23;17.80;59.30
2873;DHT22;1444;49.166;7.312;2023-04-15T15:08:50;17.90;59.70
2873;DHT22;1444;49.166;7.312;2023-04-15T15:11:17;17.90;61.40
2873;DHT22;1444;49.166;7.312;2023-04-15T15:13:43;17.90;59.30
2873;DHT22;1444;49.166;7.312;2023-04-15T15:16:10;17.80;59.40
2873;DHT22;1444;49.166;7.312;2023-04-15T15:18:37;17.60;58.10
2873;DHT22;1444;49.166;7.312;2023-04-15T15:21:03;17.50;59.00
2873;DHT22;1444;49.166;7.312;2023-04-15T15:23:31;17.40;60.90
2873;DHT22;1444;49.166;7.312;2023-04-15T15:25:58;17.40;60.90
2873;DHT22;1444;49.166;7.312;2023-04-15T15:28:25;17.30;60.30
2873;DHT22;1444;49.166;7.312;2023-04-15T15:30:52;17.30;60.10
2873;DHT22;1444;49.166;7.312;2023-04-15T15:33:19;17.20;60.40
2873;DHT22;1444;49.166;7.312;2023-04-15T15:35:46;17.10;59.80
2873;DHT22;1444;49.166;7.312;2023-04-15T15:38:12;17.10;60.80
2873;DHT22;1444;49.166;7.312;2023-04-15T15:40:40;17.00;61.10
2873;DHT22;1444;49.166;7.312;2023-04-15T15:43:07;17.10;62.20
2873;DHT22;1444;49.166;7.312;2023-04-15T15:45:34;17.00;62.00
2873;DHT22;1444;49.166;7.312;2023-04-15T15:48:01;17.00;62.20
2873;DHT22;1444;49.166;7.312;2023-04-15T15:50:28;17.00;62.70
2873;DHT22;1444;49.166;7.312;2023-04-15T15:52:54;16.90;62.40
2873;DHT22;1444;49.166;7.312;2023-04-15T15:55:22;16.90;62.20
2873;DHT22;1444;49.166;7.312;2023-04-15T15:57:51;16.80;63.70
2873;DHT22;1444;49.166;7.312;2023-04-15T16:00:18;16.80;64.00
2873;DHT22;1444;49.166;7.312;2023-04-15T16:02:45;16.80;64.60
2873;DHT22;1444;49.166;7.312;2023-04-15T16:05:12;16.90;63.70
2873;DHT22;1444;49.166;7.312;2023-04-15T16:07:39;16.80;64.70
2873;DHT22;1444;49.166;7.312;2023-04-15T16:10:06;16.70;64.10
2873;DHT22;1444;49.166;7.312;2023-04-15T16:12:33;16.70;65.10
2873;DHT22;1444;49.166;7.312;2023-04-15T16:15:01;16.60;64.60
2873;DHT22;1444;49.166;7.312;2023-04-15T16:17:28;16.50;64.50
2873;DHT22;1444;49.166;7.312;2023-04-15T16:19:55;16.40;64.40
2873;DHT22;1444;49.166;7.312;2023-04-15T16:22:24;16.40;65.70
2873;DHT22;1444;49.166;7.312;2023-04-15T16:24:51;16.30;66.60
2873;DHT22;1444;49.166;7.312;2023-04-15T16:27:18;16.20;66.00